createdAt,value
2019-02-09T00:00:58.119Z,996.54
2019-02-09T00:01:58.100Z,996.53
2019-02-09T00:02:58.047Z,996.58
2019-02-09T00:03:57.995Z,996.58
2019-02-09T00:04:57.954Z,996.67
2019-02-09T00:05:57.908Z,996.74
2019-02-09T00:06:57.896Z,996.69
2019-02-09T00:07:57.811Z,996.74
2019-02-09T00:08:57.793Z,996.75
2019-02-09T00:09:57.742Z,996.73
2019-02-09T00:10:57.687Z,996.75
2019-02-09T00:11:57.669Z,996.76
2019-02-09T00:12:57.601Z,996.76
2019-02-09T00:13:57.559Z,996.70
2019-02-09T00:14:57.525Z,996.72
2019-02-09T00:15:57.500Z,996.76
2019-02-09T00:16:57.442Z,996.78
2019-02-09T00:17:57.393Z,996.75
2019-02-09T00:18:57.325Z,996.75
2019-02-09T00:19:57.303Z,996.75
2019-02-09T00:20:57.277Z,996.70
2019-02-09T00:21:57.213Z,996.66
2019-02-09T00:22:57.166Z,996.72
2019-02-09T00:23:57.119Z,996.66
2019-02-09T00:24:57.071Z,996.75
2019-02-09T00:25:57.050Z,996.68
2019-02-09T00:26:56.992Z,996.68
2019-02-09T00:27:56.946Z,996.66
2019-02-09T00:28:56.969Z,996.62
2019-02-09T00:29:56.866Z,996.53
2019-02-09T00:30:56.818Z,996.45
2019-02-09T00:31:56.810Z,996.37
2019-02-09T00:32:56.722Z,996.29
2019-02-09T00:33:56.672Z,996.26
2019-02-09T00:34:56.648Z,996.29
2019-02-09T00:35:56.634Z,996.32
2019-02-09T00:36:56.550Z,996.34
2019-02-09T00:37:56.497Z,996.28
2019-02-09T00:38:56.452Z,996.23
2019-02-09T00:39:56.443Z,996.24
2019-02-09T00:40:56.414Z,996.19
2019-02-09T00:41:56.380Z,996.23
2019-02-09T00:42:56.301Z,996.26
2019-02-09T00:43:56.252Z,996.24
2019-02-09T00:44:57.287Z,996.31
2019-02-09T00:45:56.164Z,996.32
2019-02-09T00:46:56.114Z,996.20
2019-02-09T00:47:56.097Z,996.18
2019-02-09T00:48:56.016Z,996.22
2019-02-09T00:49:55.965Z,996.21
2019-02-09T00:50:55.925Z,996.17
2019-02-09T00:51:55.880Z,996.04
2019-02-09T00:52:55.855Z,996.07
2019-02-09T00:53:55.800Z,996.07
2019-02-09T00:54:55.803Z,996.00
2019-02-09T00:55:55.714Z,995.99
2019-02-09T00:56:55.653Z,995.93
2019-02-09T00:57:55.692Z,995.97
2019-02-09T00:58:55.575Z,996.00
2019-02-09T00:59:55.565Z,996.04
2019-02-09T01:00:55.507Z,995.95
2019-02-09T01:01:55.435Z,995.93
2019-02-09T01:02:55.423Z,995.96
2019-02-09T01:03:55.353Z,995.93
2019-02-09T01:04:55.322Z,995.82
2019-02-09T01:05:55.314Z,995.82
2019-02-09T01:06:55.232Z,995.81
2019-02-09T01:07:55.187Z,995.94
2019-02-09T01:08:55.165Z,995.92
2019-02-09T01:09:55.132Z,995.83
2019-02-09T01:10:55.049Z,995.80
2019-02-09T01:11:55.022Z,995.80
2019-02-09T01:12:54.965Z,995.78
2019-02-09T01:13:54.915Z,995.81
2019-02-09T01:14:54.854Z,995.75
2019-02-09T01:15:54.861Z,995.71
2019-02-09T01:16:54.816Z,995.67
2019-02-09T01:17:54.734Z,995.69
2019-02-09T01:18:54.710Z,995.79
2019-02-09T01:19:54.678Z,995.76
2019-02-09T01:20:54.631Z,995.73
2019-02-09T01:21:54.554Z,995.70
2019-02-09T01:22:54.505Z,995.76
2019-02-09T01:23:54.454Z,995.70
2019-02-09T01:24:54.458Z,995.74
2019-02-09T01:25:54.403Z,995.73
2019-02-09T01:26:54.367Z,995.80
2019-02-09T01:27:54.301Z,995.85
2019-02-09T01:28:54.239Z,995.76
2019-02-09T01:30:01.954Z,995.80
2019-02-09T01:30:54.163Z,995.74
2019-02-09T01:31:54.142Z,995.81
2019-02-09T01:32:54.080Z,995.78
2019-02-09T01:33:54.016Z,995.75
2019-02-09T01:34:54.031Z,995.69
2019-02-09T01:35:53.980Z,995.71
2019-02-09T01:36:53.902Z,995.61
2019-02-09T01:37:53.852Z,995.48
2019-02-09T01:38:53.797Z,995.68
2019-02-09T01:39:53.760Z,995.66
2019-02-09T01:40:53.745Z,995.76
2019-02-09T01:41:53.676Z,995.69
2019-02-09T01:42:53.646Z,995.83
2019-02-09T01:43:53.567Z,995.89
2019-02-09T01:44:53.551Z,995.94
2019-02-09T01:45:53.530Z,995.90
2019-02-09T01:46:53.440Z,995.89
2019-02-09T01:47:53.421Z,995.93
2019-02-09T01:48:53.358Z,995.87
2019-02-09T01:49:53.342Z,995.81
2019-02-09T01:50:53.267Z,995.88
2019-02-09T01:51:53.265Z,995.80
2019-02-09T01:52:53.200Z,995.78
2019-02-09T01:53:53.143Z,995.74
2019-02-09T01:54:53.109Z,995.80
2019-02-09T01:55:53.060Z,995.81
2019-02-09T01:56:52.998Z,995.77
2019-02-09T01:57:52.950Z,995.83
2019-02-09T01:58:52.939Z,995.76
2019-02-09T01:59:52.875Z,995.77
2019-02-09T02:00:52.858Z,995.79
2019-02-09T02:01:52.773Z,995.76
2019-02-09T02:02:52.764Z,995.78
2019-02-09T02:03:52.712Z,995.81
2019-02-09T02:04:52.676Z,995.79
2019-02-09T02:05:52.638Z,995.87
2019-02-09T02:06:52.591Z,995.77
2019-02-09T02:07:52.542Z,995.79
2019-02-09T02:08:52.486Z,995.85
2019-02-09T02:09:52.428Z,995.81
2019-02-09T02:10:52.396Z,995.78
2019-02-09T02:11:52.366Z,995.75
2019-02-09T02:12:52.307Z,995.72
2019-02-09T02:13:52.288Z,995.67
2019-02-09T02:14:52.195Z,995.72
2019-02-09T02:15:52.162Z,995.73
2019-02-09T02:16:52.159Z,995.72
2019-02-09T02:17:52.090Z,995.64
2019-02-09T02:18:52.036Z,995.73
2019-02-09T02:19:51.985Z,995.68
2019-02-09T02:20:51.968Z,995.69
2019-02-09T02:21:51.925Z,995.69
2019-02-09T02:22:51.867Z,995.66
2019-02-09T02:23:51.840Z,995.62
2019-02-09T02:24:51.774Z,995.61
2019-02-09T02:25:51.719Z,995.61
2019-02-09T02:26:51.690Z,995.65
2019-02-09T02:27:51.652Z,995.68
2019-02-09T02:28:51.629Z,995.61
2019-02-09T02:29:51.565Z,995.62
2019-02-09T02:30:51.513Z,995.56
2019-02-09T02:31:51.459Z,995.59
2019-02-09T02:32:51.696Z,995.54
2019-02-09T02:33:51.405Z,995.49
2019-02-09T02:34:51.337Z,995.39
2019-02-09T02:35:51.294Z,995.40
2019-02-09T02:36:51.245Z,995.39
2019-02-09T02:37:51.231Z,995.35
2019-02-09T02:38:51.171Z,995.34
2019-02-09T02:39:51.110Z,995.34
2019-02-09T02:40:51.083Z,995.37
2019-02-09T02:41:51.037Z,995.33
2019-02-09T02:42:50.992Z,995.31
2019-02-09T02:43:50.945Z,995.26
2019-02-09T02:44:50.879Z,995.22
2019-02-09T02:45:50.882Z,995.22
2019-02-09T02:46:50.795Z,995.21
2019-02-09T02:47:50.757Z,995.20
2019-02-09T02:48:50.719Z,995.20
2019-02-09T02:49:50.666Z,995.20
2019-02-09T02:50:50.608Z,995.19
2019-02-09T02:51:50.601Z,995.21
2019-02-09T02:52:50.539Z,995.29
2019-02-09T02:53:50.521Z,995.34
2019-02-09T02:54:50.443Z,995.37
2019-02-09T02:55:50.401Z,995.38
2019-02-09T02:56:50.387Z,995.38
2019-02-09T02:57:52.230Z,995.31
2019-02-09T02:58:50.282Z,995.26
2019-02-09T02:59:50.249Z,995.23
2019-02-09T03:00:50.185Z,995.24
2019-02-09T03:01:50.141Z,995.22
2019-02-09T03:02:50.126Z,995.27
2019-02-09T03:03:50.044Z,995.27
2019-02-09T03:04:50.000Z,995.33
2019-02-09T03:05:49.954Z,995.37
2019-02-09T03:06:49.912Z,995.53
2019-02-09T03:07:49.903Z,995.54
2019-02-09T03:08:49.820Z,995.55
2019-02-09T03:09:49.782Z,995.59
2019-02-09T03:10:49.730Z,995.59
2019-02-09T03:11:49.707Z,995.58
2019-02-09T03:12:49.644Z,995.62
2019-02-09T03:13:49.620Z,995.64
2019-02-09T03:14:49.590Z,995.66
2019-02-09T03:15:49.533Z,995.71
2019-02-09T03:16:49.480Z,995.74
2019-02-09T03:17:49.433Z,995.77
2019-02-09T03:18:49.394Z,995.76
2019-02-09T03:19:49.327Z,995.71
2019-02-09T03:20:49.303Z,995.78
2019-02-09T03:21:49.252Z,995.74
2019-02-09T03:22:49.216Z,995.83
2019-02-09T03:23:49.189Z,995.86
2019-02-09T03:24:49.146Z,995.91
2019-02-09T03:25:49.112Z,995.92
2019-02-09T03:26:49.043Z,995.91
2019-02-09T03:27:49.009Z,995.93
2019-02-09T03:28:48.952Z,995.95
2019-02-09T03:29:48.893Z,995.89
2019-02-09T03:30:49.483Z,995.92
2019-02-09T03:31:48.830Z,995.96
2019-02-09T03:32:48.766Z,995.95
2019-02-09T03:33:48.718Z,995.97
2019-02-09T03:34:48.691Z,996.00
2019-02-09T03:35:48.656Z,995.97
2019-02-09T03:36:48.620Z,995.99
2019-02-09T03:37:48.555Z,995.93
2019-02-09T03:38:48.512Z,996.01
2019-02-09T03:39:48.456Z,996.05
2019-02-09T03:40:48.411Z,996.04
2019-02-09T03:41:48.399Z,996.06
2019-02-09T03:42:48.330Z,996.07
2019-02-09T03:43:48.276Z,995.99
2019-02-09T03:44:48.245Z,996.00
2019-02-09T03:45:48.221Z,995.96
2019-02-09T03:46:48.163Z,995.95
2019-02-09T03:47:48.155Z,995.95
2019-02-09T03:48:48.070Z,996.01
2019-02-09T03:49:48.037Z,996.08
2019-02-09T03:50:47.967Z,996.05
2019-02-09T03:51:47.965Z,996.08
2019-02-09T03:52:47.913Z,995.86
2019-02-09T03:53:47.846Z,996.03
2019-02-09T03:54:47.840Z,996.07
2019-02-09T03:55:47.761Z,996.10
2019-02-09T03:56:47.757Z,996.10
2019-02-09T03:57:47.712Z,996.08
2019-02-09T03:58:47.630Z,996.11
2019-02-09T03:59:47.599Z,996.05
2019-02-09T04:00:55.216Z,996.06
2019-02-09T04:01:47.522Z,996.06
2019-02-09T04:02:47.476Z,996.16
2019-02-09T04:03:47.429Z,996.20
2019-02-09T04:04:47.371Z,996.18
2019-02-09T04:05:47.329Z,996.21
2019-02-09T04:06:47.302Z,996.22
2019-02-09T04:07:47.273Z,996.21
2019-02-09T04:08:47.204Z,996.22
2019-02-09T04:09:47.155Z,996.20
2019-02-09T04:10:47.140Z,996.22
2019-02-09T04:11:47.070Z,996.21
2019-02-09T04:12:47.027Z,996.13
2019-02-09T04:13:47.009Z,996.17
2019-02-09T04:14:46.959Z,996.29
2019-02-09T04:15:46.889Z,996.22
2019-02-09T04:16:46.843Z,996.16
2019-02-09T04:17:46.828Z,996.27
2019-02-09T04:18:46.786Z,996.42
2019-02-09T04:19:46.755Z,996.37
2019-02-09T04:20:46.690Z,996.42
2019-02-09T04:21:46.639Z,996.36
2019-02-09T04:22:46.582Z,996.37
2019-02-09T04:23:46.531Z,996.35
2019-02-09T04:24:46.536Z,996.41
2019-02-09T04:25:46.463Z,996.39
2019-02-09T04:26:46.404Z,996.33
2019-02-09T04:27:46.364Z,996.49
2019-02-09T04:28:46.324Z,996.51
2019-02-09T04:29:46.275Z,996.46
2019-02-09T04:30:46.276Z,996.53
2019-02-09T04:31:46.199Z,996.43
2019-02-09T04:32:46.162Z,996.59
2019-02-09T04:33:46.126Z,996.56
2019-02-09T04:34:46.070Z,996.59
2019-02-09T04:35:46.037Z,996.53
2019-02-09T04:36:46.073Z,996.52
2019-02-09T04:37:45.925Z,996.57
2019-02-09T04:38:45.892Z,996.56
2019-02-09T04:39:45.856Z,996.56
2019-02-09T04:40:45.809Z,996.55
2019-02-09T04:41:45.779Z,996.57
2019-02-09T04:42:45.735Z,996.63
2019-02-09T04:43:45.676Z,996.60
2019-02-09T04:44:45.658Z,996.69
2019-02-09T04:45:45.610Z,996.59
2019-02-09T04:46:45.561Z,996.63
2019-02-09T04:47:45.496Z,996.67
2019-02-09T04:48:45.452Z,996.65
2019-02-09T04:49:45.475Z,996.62
2019-02-09T04:50:45.365Z,996.68
2019-02-09T04:51:45.325Z,996.62
2019-02-09T04:52:45.300Z,996.67
2019-02-09T04:53:45.239Z,996.70
2019-02-09T04:54:45.194Z,996.68
2019-02-09T04:55:45.172Z,996.67
2019-02-09T04:56:45.115Z,996.66
2019-02-09T04:57:45.087Z,996.67
2019-02-09T04:58:45.009Z,996.73
2019-02-09T04:59:44.987Z,996.65
2019-02-09T05:00:44.929Z,996.63
2019-02-09T05:01:44.931Z,996.71
2019-02-09T05:02:44.853Z,996.72
2019-02-09T05:03:44.835Z,996.74
2019-02-09T05:04:44.753Z,996.64
2019-02-09T05:05:44.701Z,996.68
2019-02-09T05:06:44.685Z,996.74
2019-02-09T05:07:44.604Z,996.75
2019-02-09T05:08:44.566Z,996.82
2019-02-09T05:09:44.532Z,996.76
2019-02-09T05:10:44.485Z,996.80
2019-02-09T05:11:44.497Z,996.75
2019-02-09T05:12:44.441Z,996.77
2019-02-09T05:13:44.356Z,996.79
2019-02-09T05:14:44.339Z,996.86
2019-02-09T05:15:44.264Z,996.88
2019-02-09T05:16:44.223Z,996.87
2019-02-09T05:17:44.188Z,996.93
2019-02-09T05:18:44.172Z,996.88
2019-02-09T05:19:44.072Z,996.97
2019-02-09T05:20:44.053Z,996.95
2019-02-09T05:21:44.030Z,996.89
2019-02-09T05:22:43.988Z,996.98
2019-02-09T05:23:43.959Z,996.99
2019-02-09T05:24:43.875Z,996.93
2019-02-09T05:25:43.834Z,997.01
2019-02-09T05:26:43.772Z,997.02
2019-02-09T05:27:43.757Z,997.01
2019-02-09T05:28:43.720Z,996.99
2019-02-09T05:29:43.653Z,997.09
2019-02-09T05:30:43.602Z,997.19
2019-02-09T05:31:43.553Z,997.21
2019-02-09T05:32:43.534Z,997.18
2019-02-09T05:33:43.482Z,997.24
2019-02-09T05:34:43.438Z,997.19
2019-02-09T05:35:43.386Z,997.23
2019-02-09T05:36:43.345Z,997.23
2019-02-09T05:37:43.306Z,997.21
2019-02-09T05:38:43.263Z,997.17
2019-02-09T05:39:43.202Z,997.18
2019-02-09T05:40:43.182Z,997.21
2019-02-09T05:41:43.130Z,997.25
2019-02-09T05:42:43.097Z,997.28
2019-02-09T05:43:43.096Z,997.31
2019-02-09T05:44:43.000Z,997.26
2019-02-09T05:45:42.979Z,997.28
2019-02-09T05:46:42.938Z,997.36
2019-02-09T05:47:42.887Z,997.34
2019-02-09T05:48:42.858Z,997.42
2019-02-09T05:49:42.776Z,997.38
2019-02-09T05:50:42.768Z,997.40
2019-02-09T05:51:42.685Z,997.50
2019-02-09T05:52:42.667Z,997.46
2019-02-09T05:53:42.597Z,997.35
2019-02-09T05:54:42.589Z,997.44
2019-02-09T05:55:42.518Z,997.46
2019-02-09T05:56:42.507Z,997.54
2019-02-09T05:57:42.436Z,997.42
2019-02-09T05:58:42.376Z,997.45
2019-02-09T05:59:42.333Z,997.49
2019-02-09T06:00:42.324Z,997.46
2019-02-09T06:01:42.259Z,997.41
2019-02-09T06:02:42.233Z,997.50
2019-02-09T06:03:42.168Z,997.59
2019-02-09T06:04:42.107Z,997.64
2019-02-09T06:05:42.078Z,997.46
2019-02-09T06:06:42.080Z,997.58
2019-02-09T06:07:42.019Z,997.54
2019-02-09T06:08:42.758Z,997.68
2019-02-09T06:09:41.962Z,997.45
2019-02-09T06:10:41.891Z,997.63
2019-02-09T06:11:41.836Z,997.58
2019-02-09T06:12:41.785Z,997.58
2019-02-09T06:13:41.759Z,997.61
2019-02-09T06:14:41.699Z,997.74
2019-02-09T06:15:41.685Z,997.57
2019-02-09T06:16:41.585Z,997.68
2019-02-09T06:17:41.568Z,997.61
2019-02-09T06:18:41.561Z,997.65
2019-02-09T06:19:41.525Z,997.74
2019-02-09T06:20:41.514Z,997.62
2019-02-09T06:21:41.381Z,997.69
2019-02-09T06:22:41.363Z,997.78
2019-02-09T06:23:41.303Z,997.84
2019-02-09T06:24:41.261Z,997.73
2019-02-09T06:25:41.223Z,997.78
2019-02-09T06:26:41.193Z,997.80
2019-02-09T06:27:41.112Z,997.82
2019-02-09T06:28:41.079Z,997.84
2019-02-09T06:29:41.049Z,997.76
2019-02-09T06:30:41.008Z,997.89
2019-02-09T06:31:41.401Z,997.93
2019-02-09T06:32:40.901Z,997.78
2019-02-09T06:33:40.850Z,997.83
2019-02-09T06:34:40.830Z,997.87
2019-02-09T06:35:40.763Z,997.85
2019-02-09T06:36:40.754Z,997.90
2019-02-09T06:37:40.711Z,997.85
2019-02-09T06:38:40.647Z,997.62
2019-02-09T06:39:40.601Z,997.77
2019-02-09T06:40:40.549Z,997.63
2019-02-09T06:41:40.501Z,997.69
2019-02-09T06:42:40.488Z,997.74
2019-02-09T06:43:40.399Z,997.78
2019-02-09T06:44:40.387Z,997.74
2019-02-09T06:45:40.320Z,997.68
2019-02-09T06:46:40.292Z,997.78
2019-02-09T06:47:40.234Z,997.72
2019-02-09T06:48:40.199Z,997.68
2019-02-09T06:49:40.180Z,997.73
2019-02-09T06:50:40.102Z,997.78
2019-02-09T06:51:40.069Z,997.66
2019-02-09T06:52:40.084Z,997.80
2019-02-09T06:53:39.980Z,997.70
2019-02-09T06:54:39.928Z,997.75
2019-02-09T06:55:39.919Z,997.79
2019-02-09T06:56:39.832Z,997.88
2019-02-09T06:57:39.807Z,997.91
2019-02-09T06:58:39.822Z,998.04
2019-02-09T06:59:39.727Z,998.05
2019-02-09T07:00:39.687Z,998.13
2019-02-09T07:01:39.634Z,998.16
2019-02-09T07:02:39.679Z,998.17
2019-02-09T07:03:39.602Z,998.12
2019-02-09T07:04:39.481Z,998.21
2019-02-09T07:05:39.463Z,998.24
2019-02-09T07:06:39.416Z,998.29
2019-02-09T07:07:39.371Z,998.29
2019-02-09T07:08:39.377Z,998.32
2019-02-09T07:09:39.318Z,998.26
2019-02-09T07:10:39.232Z,998.37
2019-02-09T07:11:39.213Z,998.35
2019-02-09T07:12:39.194Z,998.43
2019-02-09T07:13:39.161Z,998.40
2019-02-09T07:14:39.084Z,998.40
2019-02-09T07:15:39.020Z,998.35
2019-02-09T07:16:38.978Z,998.34
2019-02-09T07:17:38.976Z,998.40
2019-02-09T07:18:38.901Z,998.54
2019-02-09T07:19:38.889Z,998.54
2019-02-09T07:20:38.825Z,998.44
2019-02-09T07:21:38.756Z,998.42
2019-02-09T07:22:38.712Z,998.44
2019-02-09T07:23:38.740Z,998.43
2019-02-09T07:24:38.671Z,998.45
2019-02-09T07:25:38.561Z,998.45
2019-02-09T07:26:38.532Z,998.49
2019-02-09T07:27:38.550Z,998.44
2019-02-09T07:28:38.489Z,998.47
2019-02-09T07:29:38.410Z,998.39
2019-02-09T07:30:38.364Z,998.53
2019-02-09T07:31:38.307Z,998.53
2019-02-09T07:32:38.284Z,998.65
2019-02-09T07:33:38.281Z,998.45
2019-02-09T07:34:38.171Z,998.55
2019-02-09T07:35:38.134Z,998.56
2019-02-09T07:36:38.096Z,998.57
2019-02-09T07:37:38.084Z,998.62
2019-02-09T07:38:38.022Z,998.72
2019-02-09T07:39:38.033Z,998.83
2019-02-09T07:40:37.923Z,998.81
2019-02-09T07:41:37.898Z,998.84
2019-02-09T07:42:37.862Z,998.90
2019-02-09T07:43:37.794Z,998.92
2019-02-09T07:44:37.772Z,998.95
2019-02-09T07:45:37.702Z,999.00
2019-02-09T07:46:37.676Z,998.94
2019-02-09T07:47:37.602Z,999.01
2019-02-09T07:48:37.594Z,998.96
2019-02-09T07:49:37.566Z,998.94
2019-02-09T07:50:37.481Z,999.02
2019-02-09T07:51:37.435Z,999.04
2019-02-09T07:52:37.401Z,999.09
2019-02-09T07:53:37.372Z,999.05
2019-02-09T07:54:37.320Z,999.00
2019-02-09T07:55:37.283Z,999.08
2019-02-09T07:56:37.227Z,999.08
2019-02-09T07:57:37.164Z,999.11
2019-02-09T07:58:37.164Z,998.96
2019-02-09T07:59:37.099Z,999.11
2019-02-09T08:00:37.040Z,999.11
2019-02-09T08:01:36.992Z,999.08
2019-02-09T08:02:36.992Z,999.10
2019-02-09T08:03:36.921Z,999.12
2019-02-09T08:04:36.873Z,999.09
2019-02-09T08:05:36.868Z,999.13
2019-02-09T08:06:36.779Z,999.11
2019-02-09T08:07:36.720Z,999.17
2019-02-09T08:08:36.685Z,999.18
2019-02-09T08:09:36.680Z,999.27
2019-02-09T08:10:36.618Z,999.19
2019-02-09T08:11:36.549Z,999.32
2019-02-09T08:12:36.541Z,999.49
2019-02-09T08:13:36.469Z,999.50
2019-02-09T08:14:36.431Z,999.51
2019-02-09T08:15:36.403Z,999.66
2019-02-09T08:16:36.347Z,999.47
2019-02-09T08:17:36.295Z,999.72
2019-02-09T08:18:36.281Z,999.58
2019-02-09T08:19:36.231Z,999.66
2019-02-09T08:20:36.191Z,999.68
2019-02-09T08:21:36.123Z,999.65
2019-02-09T08:22:36.099Z,999.69
2019-02-09T08:23:36.049Z,999.95
2019-02-09T08:24:36.031Z,999.72
2019-02-09T08:25:35.947Z,999.93
2019-02-09T08:26:35.926Z,999.88
2019-02-09T08:27:35.853Z,999.86
2019-02-09T08:28:35.830Z,999.80
2019-02-09T08:29:35.805Z,999.65
2019-02-09T08:30:35.754Z,999.79
2019-02-09T08:31:35.701Z,999.84
2019-02-09T08:32:35.668Z,999.87
2019-02-09T08:33:35.610Z,999.97
2019-02-09T08:34:35.586Z,1000.04
2019-02-09T08:35:35.566Z,999.90
2019-02-09T08:36:35.498Z,999.92
2019-02-09T08:37:35.447Z,999.93
2019-02-09T08:38:35.436Z,1000.02
2019-02-09T08:39:35.386Z,999.91
2019-02-09T08:40:35.335Z,999.89
2019-02-09T08:41:35.305Z,999.77
2019-02-09T08:42:35.268Z,1000.00
2019-02-09T08:43:35.204Z,999.99
2019-02-09T08:44:35.165Z,999.99
2019-02-09T08:45:35.130Z,999.94
2019-02-09T08:46:35.108Z,999.99
2019-02-09T08:47:35.058Z,999.82
2019-02-09T08:48:36.621Z,999.76
2019-02-09T08:49:34.957Z,999.73
2019-02-09T08:50:34.921Z,999.88
2019-02-09T08:51:34.878Z,1000.02
2019-02-09T08:52:34.858Z,999.91
2019-02-09T08:53:34.793Z,999.78
2019-02-09T08:54:34.745Z,1000.19
2019-02-09T08:55:34.706Z,999.98
2019-02-09T08:56:34.674Z,1000.06
2019-02-09T08:57:34.677Z,1000.11
2019-02-09T08:58:34.594Z,1000.17
2019-02-09T08:59:34.582Z,1000.14
2019-02-09T09:00:34.506Z,1000.22
2019-02-09T09:01:34.492Z,1000.34
2019-02-09T09:02:34.486Z,1000.30
2019-02-09T09:03:34.413Z,999.78
2019-02-09T09:04:34.360Z,999.72
2019-02-09T09:05:34.346Z,999.77
2019-02-09T09:06:34.286Z,999.64
2019-02-09T09:07:34.228Z,999.73
2019-02-09T09:08:34.237Z,1000.24
2019-02-09T09:09:34.181Z,1000.05
2019-02-09T09:10:34.134Z,1000.23
2019-02-09T09:11:34.077Z,1000.23
2019-02-09T09:12:34.036Z,1000.13
2019-02-09T09:13:34.016Z,1000.06
2019-02-09T09:14:33.965Z,999.80
2019-02-09T09:15:33.950Z,1000.34
2019-02-09T09:16:33.887Z,1000.17
2019-02-09T09:17:33.868Z,1000.20
2019-02-09T09:18:33.818Z,1000.47
2019-02-09T09:19:33.794Z,1000.14
2019-02-09T09:20:33.732Z,1000.37
2019-02-09T09:21:33.678Z,1000.31
2019-02-09T09:22:33.676Z,1000.44
2019-02-09T09:23:33.634Z,1000.40
2019-02-09T09:24:33.565Z,1000.46
2019-02-09T09:25:33.572Z,1000.15
2019-02-09T09:26:33.519Z,1000.41
2019-02-09T09:27:33.441Z,1000.51
2019-02-09T09:28:33.409Z,1000.48
2019-02-09T09:29:33.376Z,1000.41
2019-02-09T09:30:33.363Z,1000.33
2019-02-09T09:31:33.289Z,1000.27
2019-02-09T09:32:33.269Z,1000.25
2019-02-09T09:33:33.236Z,1000.27
2019-02-09T09:34:33.199Z,1000.33
2019-02-09T09:35:33.174Z,1000.25
2019-02-09T09:36:33.099Z,1000.38
2019-02-09T09:37:33.085Z,1000.37
2019-02-09T09:38:33.064Z,1000.44
2019-02-09T09:39:32.973Z,1000.39
2019-02-09T09:40:32.965Z,1000.55
2019-02-09T09:41:32.915Z,1000.50
2019-02-09T09:42:32.895Z,1000.46
2019-02-09T09:43:33.999Z,1000.41
2019-02-09T09:44:32.820Z,1000.42
2019-02-09T09:45:32.766Z,1000.33
2019-02-09T09:46:32.712Z,1000.38
2019-02-09T09:47:32.675Z,1000.26
2019-02-09T09:48:32.643Z,1000.31
2019-02-09T09:49:32.623Z,1000.29
2019-02-09T09:50:32.574Z,1000.37
2019-02-09T09:51:32.525Z,1000.32
2019-02-09T09:52:32.470Z,1000.46
2019-02-09T09:53:32.432Z,1000.61
2019-02-09T09:54:32.400Z,1000.69
2019-02-09T09:55:32.392Z,1000.47
2019-02-09T09:56:32.314Z,1000.56
2019-02-09T09:57:32.274Z,1000.29
2019-02-09T09:58:32.224Z,1000.61
2019-02-09T09:59:32.184Z,1000.78
2019-02-09T10:00:32.209Z,1000.51
2019-02-09T10:01:32.125Z,1000.72
2019-02-09T10:02:36.667Z,1000.61
2019-02-09T10:03:32.017Z,1000.61
2019-02-09T10:04:31.982Z,1000.68
2019-02-09T10:05:31.967Z,1000.67
2019-02-09T10:06:31.913Z,1000.70
2019-02-09T10:07:31.864Z,1000.87
2019-02-09T10:08:31.839Z,1000.80
2019-02-09T10:09:31.793Z,1000.85
2019-02-09T10:10:31.864Z,1000.68
2019-02-09T10:11:31.737Z,1000.74
2019-02-09T10:12:31.701Z,1000.68
2019-02-09T10:13:31.656Z,1000.62
2019-02-09T10:14:31.606Z,1000.41
2019-02-09T10:15:31.615Z,1000.55
2019-02-09T10:16:31.540Z,1000.57
2019-02-09T10:17:31.470Z,1000.61
2019-02-09T10:18:31.446Z,1000.58
2019-02-09T10:19:31.395Z,1000.62
2019-02-09T10:20:31.410Z,1000.54
2019-02-09T10:21:31.321Z,1001.09
2019-02-09T10:22:31.294Z,1000.94
2019-02-09T10:23:31.256Z,1000.89
2019-02-09T10:24:31.201Z,1000.77
2019-02-09T10:25:31.171Z,1000.70
2019-02-09T10:26:31.156Z,1000.82
2019-02-09T10:27:31.101Z,1000.74
2019-02-09T10:28:31.098Z,1000.64
2019-02-09T10:29:31.068Z,1000.69
2019-02-09T10:30:31.039Z,1000.77
2019-02-09T10:31:30.928Z,1000.53
2019-02-09T10:32:30.886Z,1000.66
2019-02-09T10:33:30.852Z,1000.59
2019-02-09T10:34:30.838Z,1000.58
2019-02-09T10:35:30.798Z,1000.78
2019-02-09T10:36:30.732Z,1000.60
2019-02-09T10:37:30.703Z,1000.74
2019-02-09T10:38:30.668Z,1000.66
2019-02-09T10:39:30.631Z,1000.64
2019-02-09T10:40:30.596Z,1000.78
2019-02-09T10:41:30.551Z,1001.03
2019-02-09T10:42:30.524Z,1000.84
2019-02-09T10:43:30.456Z,1001.06
2019-02-09T10:44:30.442Z,1000.98
2019-02-09T10:45:30.384Z,1000.92
2019-02-09T10:46:30.387Z,1000.83
2019-02-09T10:47:30.298Z,1000.60
2019-02-09T10:48:30.287Z,1000.96
2019-02-09T10:49:30.237Z,1000.75
2019-02-09T10:50:30.214Z,1000.78
2019-02-09T10:51:30.173Z,1000.77
2019-02-09T10:52:30.180Z,1000.89
2019-02-09T10:53:30.091Z,1000.92
2019-02-09T10:54:30.145Z,1000.66
2019-02-09T10:55:29.984Z,1000.64
2019-02-09T10:56:29.947Z,1000.75
2019-02-09T10:57:29.899Z,1000.90
2019-02-09T10:58:29.882Z,1000.63
2019-02-09T10:59:29.836Z,1000.68
2019-02-09T11:00:29.791Z,1000.64
2019-02-09T11:01:29.757Z,1000.60
2019-02-09T11:02:29.744Z,1000.62
2019-02-09T11:03:29.675Z,1000.58
2019-02-09T11:04:29.648Z,1000.70
2019-02-09T11:05:29.625Z,1000.60
2019-02-09T11:06:29.563Z,1000.70
2019-02-09T11:07:29.497Z,1000.67
2019-02-09T11:08:29.486Z,1000.68
2019-02-09T11:09:29.416Z,1000.54
2019-02-09T11:10:29.414Z,1000.64
2019-02-09T11:11:29.378Z,1000.77
2019-02-09T11:12:29.316Z,1000.66
2019-02-09T11:13:29.310Z,1000.55
2019-02-09T11:14:29.208Z,1000.62
2019-02-09T11:15:29.178Z,1001.02
2019-02-09T11:16:29.134Z,1000.86
2019-02-09T11:17:29.084Z,1000.87
2019-02-09T11:18:29.084Z,1001.08
2019-02-09T11:19:29.035Z,1001.12
2019-02-09T11:20:29.003Z,1001.12
2019-02-09T11:21:28.914Z,1000.98
2019-02-09T11:22:28.905Z,1000.90
2019-02-09T11:23:28.863Z,1000.42
2019-02-09T11:24:28.846Z,1000.81
2019-02-09T11:25:28.793Z,1000.77
2019-02-09T11:26:28.743Z,1000.74
2019-02-09T11:27:28.706Z,1000.82
2019-02-09T11:28:28.655Z,1000.64
2019-02-09T11:29:28.678Z,1000.68
2019-02-09T11:30:28.588Z,1000.79
2019-02-09T11:31:28.546Z,1000.75
2019-02-09T11:32:28.502Z,1000.81
2019-02-09T11:33:29.337Z,1000.87
2019-02-09T11:34:28.451Z,1000.67
2019-02-09T11:35:28.408Z,1000.81
2019-02-09T11:36:28.352Z,1001.04
2019-02-09T11:37:28.333Z,1000.84
2019-02-09T11:38:28.254Z,1000.91
2019-02-09T11:39:28.212Z,1000.95
2019-02-09T11:40:28.238Z,1000.67
2019-02-09T11:41:28.117Z,1001.07
2019-02-09T11:42:28.099Z,1001.09
2019-02-09T11:43:28.072Z,1000.98
2019-02-09T11:44:28.015Z,1001.06
2019-02-09T11:45:28.014Z,1001.13
2019-02-09T11:46:27.935Z,1001.01
2019-02-09T11:47:27.887Z,1001.02
2019-02-09T11:48:27.856Z,1001.13
2019-02-09T11:49:27.842Z,1001.02
2019-02-09T11:50:27.814Z,1001.10
2019-02-09T11:51:27.759Z,1001.06
2019-02-09T11:52:27.708Z,1001.16
2019-02-09T11:53:27.662Z,1001.08
2019-02-09T11:54:27.638Z,1000.99
2019-02-09T11:55:27.613Z,1001.03
2019-02-09T11:56:27.597Z,1000.94
2019-02-09T11:57:27.526Z,1000.89
2019-02-09T11:58:27.530Z,1000.97
2019-02-09T11:59:27.443Z,1000.96
2019-02-09T12:00:27.404Z,1000.93
2019-02-09T12:01:27.375Z,1001.18
2019-02-09T12:02:27.372Z,1000.99
2019-02-09T12:03:27.306Z,1000.93
2019-02-09T12:04:27.285Z,1000.83
2019-02-09T12:05:27.224Z,1000.94
2019-02-09T12:06:27.210Z,1001.08
2019-02-09T12:07:27.177Z,1000.98
2019-02-09T12:08:27.114Z,1000.88
2019-02-09T12:09:27.087Z,1000.89
2019-02-09T12:10:27.040Z,1000.87
2019-02-09T12:11:27.003Z,1001.01
2019-02-09T12:12:26.968Z,1000.89
2019-02-09T12:13:26.951Z,1000.69
2019-02-09T12:14:26.908Z,1000.87
2019-02-09T12:15:26.859Z,1000.95
2019-02-09T12:16:26.829Z,1000.85
2019-02-09T12:17:26.778Z,1000.78
2019-02-09T12:18:26.736Z,1001.07
2019-02-09T12:19:26.737Z,1000.80
2019-02-09T12:20:26.659Z,1000.81
2019-02-09T12:21:26.613Z,1000.76
2019-02-09T12:22:26.690Z,1000.82